createdAt,value
2019-02-22T00:01:51.763Z,93.30
2019-02-22T00:04:22.312Z,93.40
2019-02-22T00:06:52.101Z,92.90
2019-02-22T00:09:22.096Z,93.40
2019-02-22T00:11:51.688Z,93.10
2019-02-22T00:14:21.348Z,93.10
2019-02-22T00:16:51.134Z,93.30
2019-02-22T00:19:21.350Z,93.40
2019-02-22T00:21:52.336Z,94.50
2019-02-22T00:24:22.245Z,94.10
2019-02-22T00:26:54.082Z,94.00
2019-02-22T00:29:23.746Z,93.70
2019-02-22T00:31:53.379Z,93.20
2019-02-22T00:34:23.125Z,94.10
2019-02-22T00:36:52.787Z,93.50
2019-02-22T00:39:22.436Z,93.10
2019-02-22T00:41:53.837Z,93.80
2019-02-22T00:44:23.755Z,97.00
2019-02-22T00:46:54.795Z,95.50
2019-02-22T00:49:26.048Z,94.70
2019-02-22T00:51:55.917Z,94.60
2019-02-22T00:54:26.655Z,93.90
2019-02-22T00:56:59.923Z,93.80
2019-02-22T00:59:32.445Z,94.00
2019-02-22T01:02:03.245Z,97.30
2019-02-22T01:04:33.221Z,95.70
2019-02-22T01:07:03.035Z,95.00
2019-02-22T01:09:34.427Z,94.60
2019-02-22T01:12:07.441Z,94.00
2019-02-22T01:14:38.203Z,93.50
2019-02-22T01:17:08.011Z,96.30
2019-02-22T01:19:37.719Z,95.20
2019-02-22T01:22:09.151Z,95.80
2019-02-22T01:24:38.882Z,94.50
2019-02-22T01:27:08.621Z,95.80
2019-02-22T01:29:40.064Z,95.00
2019-02-22T01:32:09.978Z,95.60
2019-02-22T01:34:39.743Z,94.30
2019-02-22T01:37:09.427Z,93.60
2019-02-22T01:39:39.159Z,93.20
2019-02-22T01:42:09.997Z,93.30
2019-02-22T01:44:39.744Z,93.10
2019-02-22T01:47:09.431Z,94.00
2019-02-22T01:49:39.476Z,93.20
2019-02-22T01:52:11.047Z,93.10
2019-02-22T01:54:42.868Z,93.10
2019-02-22T01:57:13.103Z,92.90
2019-02-22T01:59:42.756Z,93.80
2019-02-22T02:02:12.524Z,94.60
2019-02-22T02:04:42.163Z,94.50
2019-02-22T02:07:11.808Z,94.70
2019-02-22T02:09:41.494Z,95.70
2019-02-22T02:12:11.260Z,95.60
2019-02-22T02:14:40.942Z,94.40
2019-02-22T02:17:11.657Z,94.80
2019-02-22T02:19:41.212Z,94.50
2019-02-22T02:22:11.446Z,95.00
2019-02-22T02:24:42.153Z,96.20
2019-02-22T02:27:15.112Z,95.50
2019-02-22T02:29:44.918Z,95.60
2019-02-22T02:32:14.666Z,94.60
2019-02-22T02:34:44.467Z,94.50
2019-02-22T02:37:14.143Z,93.80
2019-02-22T02:39:45.960Z,93.70
2019-02-22T02:42:15.675Z,94.30
2019-02-22T02:44:45.356Z,93.80
2019-02-22T02:47:16.030Z,94.00
2019-02-22T02:49:47.409Z,93.70
2019-02-22T02:52:16.983Z,93.30
2019-02-22T02:54:48.370Z,93.30
2019-02-22T02:57:17.996Z,93.10
2019-02-22T02:59:47.697Z,93.00
2019-02-22T03:02:28.612Z,93.50
2019-02-22T03:04:59.832Z,93.50
2019-02-22T03:07:43.007Z,93.20
2019-02-22T03:10:12.685Z,93.20
2019-02-22T03:12:42.374Z,93.00
2019-02-22T03:15:13.413Z,93.00
2019-02-22T03:17:43.167Z,93.30
2019-02-22T03:20:14.075Z,93.40
2019-02-22T03:22:44.994Z,93.20
2019-02-22T03:25:14.880Z,93.90
2019-02-22T03:27:44.507Z,93.70
2019-02-22T03:30:14.209Z,93.40
2019-02-22T03:32:45.368Z,93.60
2019-02-22T03:35:17.811Z,95.20
2019-02-22T03:37:47.468Z,94.60
2019-02-22T03:40:20.515Z,94.10
2019-02-22T03:42:53.153Z,94.40
2019-02-22T03:45:25.372Z,94.70
2019-02-22T03:47:54.964Z,94.40
2019-02-22T03:50:24.592Z,94.80
2019-02-22T03:53:18.286Z,95.30
2019-02-22T03:55:47.937Z,95.00
2019-02-22T03:58:17.603Z,94.80
2019-02-22T04:00:47.499Z,95.00
2019-02-22T04:03:18.931Z,94.20
2019-02-22T04:05:50.769Z,93.70
2019-02-22T04:08:22.611Z,93.80
2019-02-22T04:10:52.304Z,93.60
2019-02-22T04:13:23.423Z,93.40
2019-02-22T04:15:54.994Z,93.70
2019-02-22T04:18:24.904Z,93.70
2019-02-22T04:20:55.832Z,95.90
2019-02-22T04:23:25.521Z,95.60
2019-02-22T04:25:56.370Z,94.70
2019-02-22T04:28:27.071Z,94.10
2019-02-22T04:30:57.320Z,93.60
2019-02-22T04:33:26.984Z,93.40
2019-02-22T04:35:56.785Z,93.20
2019-02-22T04:38:26.371Z,93.20
2019-02-22T04:40:56.044Z,93.40
2019-02-22T04:43:25.793Z,93.60
2019-02-22T04:45:57.855Z,93.50
2019-02-22T04:48:29.858Z,93.30
2019-02-22T04:51:01.859Z,93.10
2019-02-22T04:53:31.491Z,93.60
2019-02-22T04:56:02.245Z,93.70
2019-02-22T04:58:34.128Z,93.60
2019-02-22T05:01:03.693Z,93.30
2019-02-22T05:03:33.570Z,93.50
2019-02-22T05:06:03.389Z,93.40
2019-02-22T05:08:34.571Z,93.80
2019-02-22T05:11:05.327Z,93.60
2019-02-22T05:13:34.975Z,93.40
2019-02-22T05:16:04.720Z,93.30
2019-02-22T05:18:36.255Z,93.60
2019-02-22T05:21:09.412Z,93.70
2019-02-22T05:23:39.575Z,93.40
2019-02-22T05:26:09.427Z,93.80
2019-02-22T05:28:39.027Z,93.40
2019-02-22T05:31:10.377Z,93.60
2019-02-22T05:33:40.223Z,93.40
2019-02-22T05:36:09.899Z,93.20
2019-02-22T05:38:40.597Z,93.20
2019-02-22T05:41:11.669Z,93.10
2019-02-22T05:43:42.581Z,93.00
2019-02-22T05:46:12.371Z,93.60
2019-02-22T05:48:42.199Z,93.50
2019-02-22T05:51:15.192Z,93.50
2019-02-22T05:53:44.888Z,93.30
2019-02-22T05:56:16.077Z,93.20
2019-02-22T05:58:45.718Z,93.20
2019-02-22T06:01:15.392Z,93.30
2019-02-22T06:03:45.045Z,93.30
2019-02-22T06:06:14.739Z,94.60
2019-02-22T06:08:44.375Z,94.20
2019-02-22T06:11:15.406Z,94.00
2019-02-22T06:13:45.631Z,95.30
2019-02-22T06:16:15.520Z,94.90
2019-02-22T06:18:45.535Z,94.50
2019-02-22T06:21:15.546Z,94.10
2019-02-22T06:23:45.223Z,94.10
2019-02-22T06:26:14.781Z,93.90
2019-02-22T06:28:44.468Z,93.90
2019-02-22T06:31:14.168Z,95.20
2019-02-22T06:33:45.456Z,94.40
2019-02-22T06:36:16.587Z,93.90
2019-02-22T06:38:46.789Z,93.80
2019-02-22T06:41:17.071Z,93.70
2019-02-22T06:43:48.046Z,93.60
2019-02-22T06:46:18.802Z,93.70
2019-02-22T06:48:49.012Z,94.00
2019-02-22T06:51:19.942Z,94.00
2019-02-22T06:53:49.991Z,93.50
2019-02-22T06:56:24.261Z,93.30
2019-02-22T06:58:54.091Z,93.10
2019-02-22T07:01:25.340Z,93.10
2019-02-22T07:03:55.129Z,93.10
2019-02-22T07:06:24.791Z,93.00
2019-02-22T07:08:56.351Z,93.00
2019-02-22T07:11:37.559Z,93.20
2019-02-22T07:14:07.075Z,93.60
2019-02-22T07:16:37.228Z,93.60
2019-02-22T07:19:10.479Z,93.70
2019-02-22T07:21:51.818Z,93.40
2019-02-22T07:24:11.640Z,93.30
2019-02-22T07:26:42.235Z,93.40
2019-02-22T07:29:11.844Z,93.80
2019-02-22T07:31:43.391Z,93.70
2019-02-22T07:34:13.043Z,93.50
2019-02-22T07:36:44.591Z,93.40
2019-02-22T07:39:27.027Z,93.30
2019-02-22T07:41:46.848Z,93.10
2019-02-22T07:44:16.579Z,92.90
2019-02-22T07:46:46.731Z,93.10
2019-02-22T07:49:24.532Z,93.10
2019-02-22T07:51:54.215Z,93.10
2019-02-22T07:54:24.136Z,93.40
2019-02-22T07:56:53.703Z,93.20
2019-02-22T07:59:23.345Z,93.60
2019-02-22T08:01:52.939Z,93.20
2019-02-22T08:04:24.139Z,93.20
2019-02-22T08:06:53.794Z,93.30
2019-02-22T08:09:23.407Z,93.80
2019-02-22T08:11:53.156Z,93.70
2019-02-22T08:14:25.182Z,93.40
2019-02-22T08:16:55.523Z,95.20
2019-02-22T08:19:26.905Z,94.70
2019-02-22T08:21:57.743Z,94.00
2019-02-22T08:24:28.538Z,93.60
2019-02-22T08:26:58.178Z,93.80
2019-02-22T08:29:28.379Z,93.40
2019-02-22T08:31:58.087Z,93.30
2019-02-22T08:34:31.277Z,93.30
2019-02-22T08:37:02.692Z,93.70
2019-02-22T08:39:32.413Z,93.50
2019-02-22T08:42:02.020Z,93.40
2019-02-22T08:44:31.578Z,93.40
2019-02-22T08:47:01.467Z,95.50
2019-02-22T08:49:31.197Z,94.30
2019-02-22T08:52:00.992Z,96.90
2019-02-22T08:54:30.532Z,97.20
2019-02-22T08:57:01.937Z,95.70
2019-02-22T08:59:31.503Z,96.10
2019-02-22T09:02:01.201Z,96.30
2019-02-22T09:04:32.116Z,97.40
2019-02-22T09:07:03.678Z,97.30
2019-02-22T09:09:33.335Z,96.60
2019-02-22T09:12:04.228Z,96.80
2019-02-22T09:14:34.375Z,97.70
2019-02-22T09:17:04.735Z,95.80
2019-02-22T09:19:35.562Z,96.00
2019-02-22T09:22:05.459Z,95.60
2019-02-22T09:24:35.045Z,95.80
2019-02-22T09:27:04.826Z,94.20
2019-02-22T09:29:34.919Z,93.70
2019-02-22T09:32:04.643Z,94.00
2019-02-22T09:34:34.231Z,92.90
2019-02-22T09:37:06.879Z,93.10
2019-02-22T09:39:38.956Z,92.50
2019-02-22T09:42:10.034Z,91.70
2019-02-22T09:44:39.791Z,92.20
2019-02-22T09:47:09.591Z,91.40
2019-02-22T09:49:39.278Z,92.10
2019-02-22T09:52:10.727Z,92.80
2019-02-22T09:54:40.416Z,93.10
2019-02-22T09:57:11.075Z,93.90
2019-02-22T09:59:42.216Z,94.00
2019-02-22T10:02:12.379Z,95.00
2019-02-22T10:04:42.011Z,94.60
2019-02-22T10:07:12.004Z,93.70
2019-02-22T10:09:42.157Z,94.90
2019-02-22T10:12:11.971Z,94.50
2019-02-22T10:14:41.705Z,94.90
2019-02-22T10:17:11.587Z,94.40
2019-02-22T10:19:41.359Z,92.80
2019-02-22T10:22:11.209Z,92.80
2019-02-22T10:24:42.341Z,92.40
2019-02-22T10:27:12.258Z,92.40
2019-02-22T10:29:43.231Z,92.00
2019-02-22T10:32:15.963Z,91.20
2019-02-22T10:34:45.759Z,92.90
2019-02-22T10:37:15.464Z,93.20
2019-02-22T10:39:45.248Z,92.70
2019-02-22T10:42:14.926Z,92.60
2019-02-22T10:44:45.985Z,93.80
2019-02-22T10:47:19.207Z,94.10
2019-02-22T10:49:48.873Z,94.00
2019-02-22T10:52:18.531Z,94.60
2019-02-22T10:54:48.216Z,95.00
2019-02-22T10:57:19.588Z,95.10
2019-02-22T10:59:49.219Z,95.10
2019-02-22T11:02:18.930Z,95.80
2019-02-22T11:04:50.190Z,95.00
2019-02-22T11:07:20.347Z,95.70
2019-02-22T11:09:51.108Z,94.10
2019-02-22T11:12:20.756Z,93.20
2019-02-22T11:14:50.399Z,94.40
2019-02-22T11:17:21.787Z,94.60
2019-02-22T11:19:51.525Z,95.10
2019-02-22T11:22:23.014Z,94.30
2019-02-22T11:24:52.692Z,95.00
2019-02-22T11:27:23.408Z,95.20
2019-02-22T11:29:53.131Z,95.10
2019-02-22T11:32:22.863Z,94.70
2019-02-22T11:34:53.659Z,94.60
2019-02-22T11:37:23.527Z,94.50
2019-02-22T11:39:53.159Z,94.30
2019-02-22T11:42:23.246Z,94.60
2019-02-22T11:44:52.883Z,94.30
2019-02-22T11:47:24.398Z,93.00
2019-02-22T11:49:54.412Z,94.00
2019-02-22T11:52:27.226Z,94.70
2019-02-22T11:54:57.190Z,92.70
2019-02-22T11:57:27.539Z,91.80
2019-02-22T11:59:57.628Z,92.70
2019-02-22T12:02:29.243Z,93.20
2019-02-22T12:05:00.224Z,91.60
2019-02-22T12:07:29.859Z,92.40
2019-02-22T12:10:01.303Z,94.40
2019-02-22T12:12:33.477Z,92.70
2019-02-22T12:15:03.145Z,92.40
2019-02-22T12:17:32.936Z,92.30
2019-02-22T12:20:03.878Z,94.10
2019-02-22T12:22:34.476Z,93.40
2019-02-22T12:25:04.299Z,92.70
2019-02-22T12:27:35.416Z,92.80
2019-02-22T12:30:06.628Z,92.30
2019-02-22T12:32:39.347Z,90.60
2019-02-22T12:35:07.929Z,92.10
2019-02-22T12:37:38.081Z,92.10
2019-02-22T12:40:08.699Z,92.00
2019-02-22T12:42:40.099Z,90.00
2019-02-22T12:45:11.031Z,91.10
2019-02-22T12:47:44.459Z,91.10
2019-02-22T12:50:14.095Z,91.90
2019-02-22T12:52:43.749Z,92.50
2019-02-22T12:55:13.925Z,90.20
2019-02-22T12:57:45.031Z,91.70
2019-02-22T13:00:16.217Z,90.00
2019-02-22T13:02:47.131Z,90.50
2019-02-22T13:05:17.420Z,90.50
2019-02-22T13:07:52.522Z,91.80
2019-02-22T13:10:21.883Z,92.90
2019-02-22T13:12:51.550Z,90.90
2019-02-22T13:15:22.886Z,92.30
2019-02-22T13:17:52.576Z,89.30
2019-02-22T13:20:24.124Z,92.10
2019-02-22T13:22:55.608Z,88.90
2019-02-22T13:25:26.452Z,90.90
2019-02-22T13:27:56.407Z,92.80
2019-02-22T13:30:27.208Z,92.10
2019-02-22T13:32:56.980Z,92.20
2019-02-22T13:35:26.640Z,91.00
2019-02-22T13:37:56.391Z,91.50
2019-02-22T13:40:27.507Z,92.20
2019-02-22T13:42:58.270Z,90.90
2019-02-22T13:45:29.007Z,90.70
2019-02-22T13:47:58.983Z,92.40
2019-02-22T13:50:31.847Z,92.00
2019-02-22T13:53:02.938Z,90.90
2019-02-22T13:55:34.915Z,90.90
2019-02-22T13:58:07.592Z,89.90
2019-02-22T14:00:37.675Z,90.00
2019-02-22T14:03:08.479Z,90.20
2019-02-22T14:05:39.643Z,89.80
2019-02-22T14:08:09.435Z,89.10
2019-02-22T14:10:39.247Z,91.90
2019-02-22T14:13:08.911Z,90.30
2019-02-22T14:15:38.668Z,87.70
2019-02-22T14:18:08.301Z,89.10
2019-02-22T14:20:39.232Z,92.00
2019-02-22T14:23:08.983Z,91.60
2019-02-22T14:25:39.684Z,90.50
2019-02-22T14:28:12.013Z,90.10
2019-02-22T14:30:41.228Z,91.30
2019-02-22T14:33:11.536Z,92.10
2019-02-22T14:35:41.500Z,90.50
2019-02-22T14:38:12.323Z,92.60
2019-02-22T14:40:43.563Z,92.10
2019-02-22T14:43:16.510Z,92.00
2019-02-22T14:45:50.558Z,91.70
2019-02-22T14:48:19.933Z,91.60
2019-02-22T14:50:50.747Z,92.70
2019-02-22T14:53:22.355Z,92.40
2019-02-22T14:55:53.200Z,91.50
2019-02-22T14:58:22.936Z,92.50
2019-02-22T15:00:52.615Z,90.40
2019-02-22T15:03:24.141Z,90.70
2019-02-22T15:05:54.305Z,92.60
2019-02-22T15:08:24.072Z,92.90
2019-02-22T15:10:54.823Z,90.60
2019-02-22T15:13:25.235Z,92.10
2019-02-22T15:16:13.459Z,93.30
2019-02-22T15:18:44.703Z,90.90
2019-02-22T15:21:14.342Z,92.10
2019-02-22T15:23:44.140Z,89.90
2019-02-22T15:26:13.942Z,91.60
2019-02-22T15:28:45.256Z,90.70
2019-02-22T15:31:15.055Z,93.00
2019-02-22T15:33:44.804Z,93.00
2019-02-22T15:36:17.430Z,92.60
2019-02-22T15:38:48.774Z,92.10
2019-02-22T15:41:21.774Z,91.10
2019-02-22T15:43:51.680Z,89.90
2019-02-22T15:46:21.451Z,90.00
2019-02-22T15:48:52.670Z,92.40
2019-02-22T15:51:24.162Z,91.60
2019-02-22T15:53:53.880Z,93.50
2019-02-22T15:56:25.380Z,93.30
2019-02-22T15:58:57.231Z,92.70
2019-02-22T16:01:26.963Z,90.80
2019-02-22T16:04:01.871Z,92.20
2019-02-22T16:06:32.449Z,91.90
2019-02-22T16:09:02.466Z,92.90
2019-02-22T16:11:32.106Z,90.20
2019-02-22T16:14:01.832Z,90.00
2019-02-22T16:16:31.895Z,93.30
2019-02-22T16:19:01.675Z,92.20
2019-02-22T16:21:31.443Z,92.20
2019-02-22T16:24:01.386Z,92.30
2019-02-22T16:26:32.436Z,90.10
2019-02-22T16:29:02.147Z,92.10
2019-02-22T16:31:31.900Z,92.40
2019-02-22T16:34:02.276Z,92.00
2019-02-22T16:36:31.824Z,90.60
2019-02-22T16:39:04.225Z,92.00
2019-02-22T16:41:33.919Z,90.70
2019-02-22T16:44:05.756Z,91.10
2019-02-22T16:46:37.771Z,89.50
2019-02-22T16:49:07.415Z,90.20
2019-02-22T16:51:38.527Z,93.90
2019-02-22T16:54:09.599Z,91.70
2019-02-22T16:56:39.279Z,93.50
2019-02-22T16:59:08.917Z,92.10
2019-02-22T17:01:38.531Z,93.30
2019-02-22T17:04:09.643Z,93.80
2019-02-22T17:06:40.616Z,92.60
2019-02-22T17:09:10.286Z,93.70
2019-02-22T17:11:41.410Z,92.50
2019-02-22T17:14:11.154Z,94.20
2019-02-22T17:16:45.871Z,93.30
2019-02-22T17:19:12.192Z,94.90
2019-02-22T17:21:41.905Z,93.30
2019-02-22T17:24:14.727Z,92.20
2019-02-22T17:26:44.396Z,92.60
2019-02-22T17:29:16.017Z,92.10
2019-02-22T17:31:47.042Z,92.20
2019-02-22T17:34:16.809Z,93.80
2019-02-22T17:36:46.740Z,93.10
2019-02-22T17:39:16.519Z,91.50
2019-02-22T17:41:48.095Z,93.50
2019-02-22T17:44:18.750Z,92.30
2019-02-22T17:46:57.240Z,91.80
2019-02-22T17:49:22.635Z,93.80
2019-02-22T17:51:54.588Z,91.90
2019-02-22T17:54:26.463Z,92.30
2019-02-22T17:56:57.127Z,91.50
2019-02-22T17:59:28.497Z,95.10
2019-02-22T18:01:58.655Z,91.00
2019-02-22T18:04:29.719Z,94.20
2019-02-22T18:06:59.571Z,93.50
2019-02-22T18:09:31.698Z,94.20
2019-02-22T18:12:01.486Z,93.70
2019-02-22T18:14:32.266Z,92.00
2019-02-22T18:17:08.526Z,93.90
2019-02-22T18:19:34.395Z,93.60
2019-02-22T18:22:04.122Z,94.00
2019-02-22T18:24:33.759Z,93.60
2019-02-22T18:27:03.541Z,92.40
2019-02-22T18:29:35.702Z,92.20
2019-02-22T18:32:05.114Z,93.90
2019-02-22T18:34:34.760Z,93.90
2019-02-22T18:37:04.748Z,92.00
2019-02-22T18:39:37.251Z,93.50
2019-02-22T18:42:06.863Z,93.30
2019-02-22T18:44:36.469Z,91.70
2019-02-22T18:47:07.403Z,92.60
2019-02-22T18:49:38.459Z,94.00
2019-02-22T18:52:08.250Z,93.80
2019-02-22T18:54:39.761Z,92.60
2019-02-22T18:57:09.482Z,94.00
2019-02-22T18:59:40.983Z,93.60
2019-02-22T19:02:12.395Z,93.60
2019-02-22T19:04:43.332Z,93.30
2019-02-22T19:07:13.035Z,93.80
2019-02-22T19:09:43.010Z,93.10
2019-02-22T19:12:13.788Z,93.20
2019-02-22T19:14:44.431Z,92.70
2019-02-22T19:17:14.242Z,93.10
2019-02-22T19:19:43.980Z,93.20
2019-02-22T19:22:14.758Z,92.60
2019-02-22T19:24:44.451Z,92.90
2019-02-22T19:27:16.556Z,92.90
2019-02-22T19:29:47.101Z,90.70
2019-02-22T19:32:16.794Z,91.90
2019-02-22T19:34:48.143Z,93.50
2019-02-22T19:37:18.104Z,93.60
2019-02-22T19:39:49.894Z,93.20
2019-02-22T19:42:19.735Z,92.40
2019-02-22T19:44:50.771Z,93.50
2019-02-22T19:47:22.152Z,93.00
2019-02-22T19:49:51.887Z,93.10
2019-02-22T19:52:23.479Z,93.10
2019-02-22T19:54:53.223Z,91.10
2019-02-22T19:57:24.672Z,93.60
2019-02-22T19:59:55.922Z,93.80
2019-02-22T20:02:27.416Z,93.10
2019-02-22T20:04:58.147Z,93.20
2019-02-22T20:07:28.983Z,92.90
2019-02-22T20:09:58.712Z,93.20
2019-02-22T20:12:30.808Z,93.80
2019-02-22T20:15:00.642Z,93.50
2019-02-22T20:17:32.035Z,94.00
2019-02-22T20:20:01.642Z,93.60
2019-02-22T20:22:33.020Z,93.50
2019-02-22T20:25:05.242Z,93.50
2019-02-22T20:27:34.907Z,93.50
2019-02-22T20:30:07.147Z,94.00
2019-02-22T20:32:38.657Z,94.20
2019-02-22T20:35:10.526Z,95.10
2019-02-22T20:37:41.472Z,95.70
2019-02-22T20:40:14.736Z,94.60
2019-02-22T20:42:45.971Z,94.90
2019-02-22T20:45:17.394Z,94.30
2019-02-22T20:47:47.026Z,93.80
2019-02-22T20:50:17.145Z,95.20
2019-02-22T20:52:47.359Z,94.50
2019-02-22T20:55:19.336Z,95.50
2019-02-22T20:57:48.898Z,95.10
2019-02-22T21:00:20.859Z,95.60
2019-02-22T21:02:51.708Z,95.20
2019-02-22T21:05:21.642Z,95.40
2019-02-22T21:07:51.238Z,95.40
2019-02-22T21:10:20.872Z,94.90
2019-02-22T21:12:51.470Z,94.80
2019-02-22T21:15:22.127Z,95.20
2019-02-22T21:17:53.443Z,94.90
2019-02-22T21:20:24.771Z,95.20
2019-02-22T21:22:54.577Z,95.40
2019-02-22T21:25:27.379Z,94.90
2019-02-22T21:27:59.497Z,95.60
2019-02-22T21:30:32.468Z,95.10
2019-02-22T21:33:02.064Z,94.90
2019-02-22T21:35:31.679Z,94.60
2019-02-22T21:38:03.174Z,94.70
2019-02-22T21:40:33.112Z,94.00
2019-02-22T21:43:02.931Z,95.90
2019-02-22T21:45:32.722Z,95.20
2019-02-22T21:48:04.196Z,95.20
2019-02-22T21:50:35.011Z,96.20
2019-02-22T21:53:05.194Z,96.10
2019-02-22T21:55:34.940Z,96.00
2019-02-22T21:58:06.391Z,97.10
2019-02-22T22:00:36.079Z,96.50
2019-02-22T22:03:07.367Z,95.80
2019-02-22T22:05:39.897Z,95.70
2019-02-22T22:08:12.290Z,95.00
2019-02-22T22:10:42.055Z,95.70
2019-02-22T22:13:12.419Z,95.70
2019-02-22T22:15:42.128Z,95.40
2019-02-22T22:18:12.167Z,94.40
2019-02-22T22:20:42.442Z,94.80
2019-02-22T22:23:12.309Z,94.50
2019-02-22T22:25:42.009Z,94.70
2019-02-22T22:28:11.859Z,94.90
2019-02-22T22:30:42.586Z,94.80
2019-02-22T22:33:14.005Z,94.60
2019-02-22T22:35:43.703Z,95.70
2019-02-22T22:38:15.230Z,94.80
2019-02-22T22:40:44.675Z,94.40
2019-02-22T22:43:16.315Z,94.20
2019-02-22T22:45:47.611Z,93.90
2019-02-22T22:48:18.215Z,94.10
2019-02-22T22:50:47.863Z,93.40
2019-02-22T22:53:19.470Z,94.10
2019-02-22T22:55:53.107Z,94.00
2019-02-22T22:58:23.186Z,94.00
2019-02-22T23:01:07.543Z,93.80
2019-02-22T23:03:37.895Z,93.50
2019-02-22T23:06:08.800Z,93.40
2019-02-22T23:08:38.398Z,93.50
2019-02-22T23:11:09.683Z,93.30
2019-02-22T23:13:39.471Z,93.50
2019-02-22T23:16:09.115Z,93.70
2019-02-22T23:18:38.798Z,92.90
2019-02-22T23:21:09.725Z,93.20
2019-02-22T23:23:39.607Z,94.00
2019-02-22T23:26:10.136Z,93.60
2019-02-22T23:28:39.921Z,93.10
2019-02-22T23:31:10.003Z,93.40
2019-02-22T23:33:40.447Z,93.60
2019-02-22T23:36:10.680Z,93.60
2019-02-22T23:38:41.662Z,93.40
2019-02-22T23:41:12.353Z,93.50
2019-02-22T23:43:42.023Z,92.90
2019-02-22T23:46:12.210Z,93.50
2019-02-22T23:48:43.563Z,93.80
2019-02-22T23:51:13.151Z,93.40
2019-02-22T23:53:42.951Z,94.10
2019-02-22T23:56:13.737Z,93.50
2019-02-22T23:58:43.696Z,93.70
